Ambrose, GA

6:16 PM EDT on July 11, 2014 (GMT -0400)
Baymeadows Lake (KGADOUGL11) Elev 256 ft | 31.45 °N, 82.91 °W | Change Station

Current weather conditions updated 56 seconds ago

Scattered Clouds
Scattered Clouds
80.6 °F
Feels Like 87 °F
N
5.8
Wind Variable Wind from SE
Gusts 5.8 mph

Tomorrow is forecast to be Warmer than today. Thunderstorms.

Today
High -- | Low -- °F
--% Chance of Precip.
Yesterday
High -- | Low -- °F
Precip. -- in
6:35 AM 8:39 PM
Full, 100% visible
Pressure 30.12 in
Visibility 10.0 miles
Clouds Scattered Clouds 2600 ft
Heat Index 87 °F
Dew Point 76 °F
Humidity 86%
Rainfall 1.32 in
Snow Depth Not available.
UV 3 out of 12
Pollen 2.30 out of 12
Air Quality Not available.
Flu Activity Sporadic
METAR KDQH 112155Z AUTO 14008KT 10SM SCT026 30/22 A3012 RMK AO2 LTG DSNT N S AND W

More Conditions Fewer Conditions

Pressure 30.12 in
Visibility 10.0 miles
Clouds Scattered Clouds 2600 ft
Heat Index 87 °F
Dew Point 76 °F
Humidity 86%
Rainfall 1.32 in
Snow Depth Not available.
UV 3 out of 12
Pollen 2.30 out of 12
Air Quality Not available.
Flu Activity Sporadic
METAR KDQH 112155Z AUTO 14008KT 10SM SCT026 30/22 A3012 RMK AO2 LTG DSNT N S AND W

More Conditions Fewer Conditions

10-Day Weather Forecast

Almanac

Astronomy

Jul. 11, 2014 Rise Set
Actual Time 6:35 AM EDT 8:39 PM EDT
Civil Twilight 6:07 AM EDT 9:06 PM EDT
Nautical Twilight 5:34 AM EDT 9:40 PM EDT
Astronomical Twilight 4:58 AM EDT 10:16 PM EDT
Moon 7:53 PM EDT 5:43 AM EDT
Length of Visible Light 14h 58m
Length of Day
14h 03m
Tomorrow will be 0m 49s shorter.
Full, 100% of the Moon is Illuminated
Today
Full
Jul 12
Full
Jul 18
Last Quarter
Jul 26
New
Aug 3
First Quarter

Today's Extremes

State Highs State Lows

Community

WunderPhotos

Upload Photos

1,732,574 photos uploaded!

WunderBlogs® & News

Nearby

Snow Depth

Station Depth Elevation
No new snow has been reported.

Earthquake Activity

City Distance Mag. Time & Date
No recent earthquake activity has been reported nearby.
Minimum magnitude displayed is 2.5.

Coastal Water Temperatures

Place Temperature
No Stations Reporting

Nearby Weather Stations

Station Location Temp. Heat Index Dew Point Humidity Wind Precip. Elev Updated Type
Baymeadows Lake, Douglas, GA 80.6 °F 87 °F 76 °F 86% SE  at  5.8 mph 0.00 in / hr 256 ft 6:15 PM EDT Rapid Fire
Douglas Golf Club Area, Douglas, GA 80.8 °F 86 °F 75 °F 82% SSE  at  0.0 mph 0.00 in / hr 224 ft 6:10 PM EDT Rapid Fire
Courthouse, Pearson, GA 80.6 °F 85 °F 73 °F 78% NE  at  3.4 mph 0.00 in / hr 226 ft 6:16 PM EDT Rapid Fire

Show More Stations Show Fewer Stations